Time;durP1;ratioP1;P1;durP2;ratioP2;P2;SDS_P1;SDS_P2;PMS_P1;PMS_P2;Temp;Humidity;BMP_temperature;BMP_pressure;BME280_temperature;BME280_humidity;BME280_pressure;Samples;Min_cycle;Max_cycle;Signal;HPM_P1;HPM_P2
2023/04/15 00:01:35;;;;;;;12.60;5.83;;;8.40;99.90;;;;;;5070502;28;20397;-53
2023/04/15 00:04:01;;;;;;;13.60;5.50;;;8.30;99.90;;;;;;5069896;28;20036;-50
2023/04/15 00:06:27;;;;;;;14.50;6.20;;;8.40;99.90;;;;;;5071778;28;20032;-51
2023/04/15 00:08:53;;;;;;;11.63;6.00;;;8.40;99.90;;;;;;5073700;28;20032;-50
2023/04/15 00:11:19;;;;;;;11.67;5.10;;;8.30;99.90;;;;;;5073785;28;20020;-49
2023/04/15 00:13:45;;;;;;;11.13;6.10;;;8.30;99.90;;;;;;5073979;28;20107;-49
2023/04/15 00:16:11;;;;;;;14.50;5.70;;;8.30;99.90;;;;;;5073773;28;20026;-53
2023/04/15 00:18:37;;;;;;;18.33;5.93;;;8.30;99.90;;;;;;5073381;28;20103;-49
2023/04/15 00:21:03;;;;;;;12.13;5.80;;;8.30;99.90;;;;;;5073980;28;20326;-50
2023/04/15 00:23:29;;;;;;;12.60;5.70;;;8.30;99.90;;;;;;5073445;28;20040;-50
2023/04/15 00:25:55;;;;;;;15.30;5.73;;;8.20;99.90;;;;;;5073632;28;20029;-51
2023/04/15 00:28:21;;;;;;;14.40;5.60;;;8.30;99.90;;;;;;5073609;28;20032;-55
2023/04/15 00:30:47;;;;;;;15.27;5.87;;;8.30;99.90;;;;;;5072541;28;20024;-54
2023/04/15 00:33:15;;;;;;;10.50;4.80;;;8.30;99.90;;;;;;5073626;28;20070;-53
2023/04/15 00:35:41;;;;;;;13.13;5.80;;;8.30;99.90;;;;;;5073354;28;20085;-54
2023/04/15 00:38:07;;;;;;;11.23;5.33;;;8.20;99.90;;;;;;5073316;28;20497;-53
2023/04/15 00:40:34;;;;;;;11.97;5.10;;;8.30;99.90;;;;;;5073503;28;20034;-53
2023/04/15 00:43:00;;;;;;;13.00;5.57;;;8.20;99.90;;;;;;5073647;28;20032;-54
2023/04/15 00:45:27;;;;;;;10.33;5.60;;;8.30;99.90;;;;;;5071903;28;20400;-53
2023/04/15 00:47:54;;;;;;;14.13;6.10;;;8.20;99.90;;;;;;5071754;28;20029;-53
2023/04/15 00:50:20;;;;;;;13.60;5.77;;;8.20;99.90;;;;;;5073254;28;20079;-47
2023/04/15 00:52:47;;;;;;;11.40;5.40;;;8.20;99.90;;;;;;5071736;28;20492;-47
2023/04/15 00:55:14;;;;;;;13.57;6.20;;;8.20;99.90;;;;;;5072944;28;20020;-47
2023/04/15 00:57:40;;;;;;;12.33;5.90;;;8.10;99.90;;;;;;5071529;28;20086;-50
2023/04/15 01:00:10;;;;;;;14.33;6.17;;;8.20;99.90;;;;;;5071653;28;20469;-47
2023/04/15 01:02:37;;;;;;;11.67;5.77;;;8.10;99.90;;;;;;5071700;28;20223;-48
2023/04/15 01:05:03;;;;;;;13.43;5.80;;;8.00;99.90;;;;;;5072581;28;20040;-47
2023/04/15 01:07:30;;;;;;;13.33;5.70;;;8.10;99.90;;;;;;5072434;28;20029;-50
2023/04/15 01:09:56;;;;;;;11.73;5.27;;;8.10;99.90;;;;;;5072640;28;20112;-48
2023/04/15 01:12:25;;;;;;;13.40;5.57;;;8.00;99.90;;;;;;5071406;28;20028;-48
2023/04/15 01:14:50;;;;;;;13.87;6.27;;;8.00;99.90;;;;;;5072208;28;20085;-53
2023/04/15 01:17:16;;;;;;;13.93;6.37;;;7.90;99.90;;;;;;5072655;28;20032;-48
2023/04/15 01:19:42;;;;;;;11.77;6.10;;;7.90;99.90;;;;;;5072363;28;20455;-50
2023/04/15 01:22:08;;;;;;;12.13;6.63;;;7.90;99.90;;;;;;5071023;28;20111;-50
2023/04/15 01:27:15;;;;;;;19.83;7.27;;;7.80;99.90;;;;;;5028124;28;20034;-53
2023/04/15 01:29:41;;;;;;;15.03;6.93;;;7.80;99.90;;;;;;5032206;28;20024;-56
2023/04/15 01:32:07;;;;;;;12.97;6.70;;;7.70;99.90;;;;;;5032162;28;20105;-54
2023/04/15 01:34:33;;;;;;;16.97;7.40;;;7.60;99.90;;;;;;5031812;28;20437;-53
2023/04/15 01:36:59;;;;;;;11.33;6.90;;;7.60;99.90;;;;;;5046500;28;20025;-53
2023/04/15 01:39:25;;;;;;;14.00;7.97;;;7.50;99.90;;;;;;5031994;28;20029;-53
2023/04/15 01:41:51;;;;;;;13.33;7.20;;;7.50;99.90;;;;;;5031865;28;20033;-54
2023/04/15 01:44:16;;;;;;;16.83;7.70;;;7.40;99.90;;;;;;5031892;28;20120;-54
2023/04/15 01:46:42;;;;;;;15.80;8.47;;;7.40;99.90;;;;;;5013816;28;20060;-55
2023/04/15 01:49:08;;;;;;;15.93;7.40;;;7.30;99.90;;;;;;5031641;28;20028;-54
2023/04/15 01:51:33;;;;;;;16.00;8.53;;;7.30;99.90;;;;;;5030347;28;20028;-56
2023/04/15 01:53:59;;;;;;;16.63;8.07;;;7.20;99.90;;;;;;5031422;28;20025;-53
2023/04/15 01:56:25;;;;;;;17.00;8.27;;;7.20;99.90;;;;;;5029819;28;20526;-53
2023/04/15 01:58:51;;;;;;;18.70;8.40;;;7.20;99.90;;;;;;5031683;28;20036;-53
2023/04/15 02:01:18;;;;;;;16.27;8.03;;;7.10;99.90;;;;;;5030236;28;20444;-52
2023/04/15 02:03:45;;;;;;;16.27;7.87;;;7.10;99.90;;;;;;5031222;28;20064;-52
2023/04/15 02:06:11;;;;;;;15.37;8.17;;;7.10;99.90;;;;;;5029841;28;20032;-53
2023/04/15 02:08:37;;;;;;;14.63;8.50;;;7.00;99.90;;;;;;5031059;28;20478;-52
2023/04/15 02:11:06;;;;;;;18.60;8.50;;;7.00;99.90;;;;;;5030062;28;20242;-54
2023/04/15 02:13:31;;;;;;;16.63;8.00;;;7.00;99.90;;;;;;5029740;28;20405;-52
2023/04/15 02:15:58;;;;;;;18.77;8.60;;;7.00;99.90;;;;;;5031109;28;20021;-57
2023/04/15 02:18:24;;;;;;;17.90;9.13;;;7.00;99.90;;;;;;5031049;28;20040;-53
2023/04/15 02:20:51;;;;;;;16.53;9.17;;;7.00;99.90;;;;;;5031086;28;20033;-50
2023/04/15 02:23:17;;;;;;;15.60;8.73;;;7.00;99.90;;;;;;5029882;28;20216;-52
2023/04/15 02:25:44;;;;;;;17.33;8.67;;;6.90;99.90;;;;;;5029489;28;20053;-54
2023/04/15 02:28:10;;;;;;;17.13;8.43;;;6.90;99.90;;;;;;5028952;28;20045;-55
2023/04/15 02:30:36;;;;;;;15.07;9.10;;;6.90;99.90;;;;;;5030917;28;20055;-54
2023/04/15 02:33:02;;;;;;;17.57;9.10;;;6.90;99.90;;;;;;5013152;28;20433;-53
2023/04/15 02:35:28;;;;;;;19.87;10.00;;;6.90;99.90;;;;;;5030519;28;20021;-53
2023/04/15 02:37:54;;;;;;;18.37;9.50;;;6.80;99.90;;;;;;5029428;28;20037;-55
2023/04/15 02:40:20;;;;;;;16.57;9.30;;;6.80;99.90;;;;;;5029404;28;20497;-54
2023/04/15 02:42:46;;;;;;;17.50;9.27;;;6.80;99.90;;;;;;5029547;28;20045;-53
2023/04/15 02:45:15;;;;;;;20.10;9.53;;;6.80;99.90;;;;;;5029354;28;20041;-54
2023/04/15 02:47:42;;;;;;;18.13;9.57;;;6.80;99.90;;;;;;5029053;28;20029;-57
2023/04/15 02:50:11;;;;;;;15.47;9.27;;;6.80;99.90;;;;;;5029204;28;20021;-53
2023/04/15 02:52:42;;;;;;;15.30;9.77;;;6.80;99.90;;;;;;5029211;28;20025;-53
2023/04/15 02:55:09;;;;;;;17.07;9.53;;;6.70;99.90;;;;;;5029034;28;20030;-51
2023/04/15 02:57:37;;;;;;;18.37;9.33;;;6.70;99.90;;;;;;5029070;28;20482;-52
2023/04/15 03:00:08;;;;;;;18.10;10.30;;;6.70;99.90;;;;;;5029115;28;20032;-54
2023/04/15 03:02:35;;;;;;;;;;;6.70;99.90;;;;;;5029792;28;20025;-53
2023/04/15 03:05:03;;;;;;;17.30;9.30;;;6.70;99.90;;;;;;5045476;28;19909;-53
2023/04/15 03:07:29;;;;;;;18.77;10.23;;;6.70;99.90;;;;;;5028774;28;20505;-55
2023/04/15 03:09:55;;;;;;;16.07;9.47;;;6.70;99.90;;;;;;5028983;28;20193;-53
2023/04/15 03:12:21;;;;;;;15.17;9.50;;;6.70;99.90;;;;;;5029079;28;20022;-55
2023/04/15 03:14:47;;;;;;;21.20;10.83;;;6.70;99.90;;;;;;5028674;28;20117;-54
2023/04/15 03:17:14;;;;;;;17.30;9.90;;;6.70;99.90;;;;;;5028738;28;20488;-53
2023/04/15 03:19:43;;;;;;;20.43;10.93;;;6.70;99.90;;;;;;5028874;28;20033;-55
2023/04/15 03:22:10;;;;;;;16.43;10.37;;;6.60;99.90;;;;;;5028958;28;20037;-53
2023/04/15 03:24:36;;;;;;;19.30;10.87;;;6.60;99.90;;;;;;5030154;28;20026;-51
2023/04/15 03:27:02;;;;;;;20.83;10.83;;;6.60;99.90;;;;;;5028457;28;20441;-52
2023/04/15 03:29:28;;;;;;;19.93;11.10;;;6.60;99.90;;;;;;5028881;28;20506;-54
2023/04/15 03:31:54;;;;;;;16.83;10.63;;;6.50;99.90;;;;;;5028844;28;20033;-55
2023/04/15 03:34:19;;;;;;;16.47;10.47;;;6.50;99.90;;;;;;5029837;28;20022;-53
2023/04/15 03:36:46;;;;;;;18.83;10.73;;;6.50;99.90;;;;;;5030039;28;20402;-53
2023/04/15 03:39:11;;;;;;;21.83;11.17;;;6.50;99.90;;;;;;5030097;28;20428;-54
2023/04/15 03:41:37;;;;;;;17.87;10.80;;;6.50;99.90;;;;;;5032402;28;20030;-53
2023/04/15 03:44:03;;;;;;;19.23;10.60;;;6.40;99.90;;;;;;5034012;28;20104;-55
2023/04/15 03:46:28;;;;;;;19.13;11.17;;;6.40;99.90;;;;;;5034103;28;20390;-54
2023/04/15 03:48:54;;;;;;;23.17;10.27;;;6.30;99.90;;;;;;5033830;28;20044;-51
2023/04/15 03:51:20;;;;;;;17.63;11.03;;;6.30;99.90;;;;;;5034020;28;20022;-55
2023/04/15 03:53:46;;;;;;;18.30;11.10;;;6.30;99.90;;;;;;5033744;28;20479;-54
2023/04/15 03:56:11;;;;;;;16.77;10.27;;;6.30;99.90;;;;;;5033659;28;20025;-54
2023/04/15 03:58:37;;;;;;;19.13;11.37;;;6.30;99.90;;;;;;5033656;28;20151;-54
2023/04/15 04:01:03;;;;;;;17.40;10.40;;;6.30;99.90;;;;;;5033751;28;20025;-53
2023/04/15 04:03:28;;;;;;;24.63;11.47;;;6.30;99.90;;;;;;5033433;28;20163;-55
2023/04/15 04:05:55;;;;;;;21.97;12.17;;;6.20;99.90;;;;;;5033876;28;20049;-55
2023/04/15 04:08:20;;;;;;;19.77;11.20;;;6.20;99.90;;;;;;5033489;28;20021;-55
2023/04/15 04:10:46;;;;;;;19.20;10.67;;;6.20;99.90;;;;;;5033680;28;20401;-56
2023/04/15 04:13:12;;;;;;;19.80;10.63;;;6.20;99.90;;;;;;5033654;28;20026;-52
2023/04/15 04:15:37;;;;;;;19.63;11.30;;;6.20;99.90;;;;;;5033169;28;20026;-53
2023/04/15 04:18:03;;;;;;;20.90;11.50;;;6.20;99.90;;;;;;5033099;28;20532;-54
2023/04/15 04:20:30;;;;;;;20.03;10.90;;;6.30;99.90;;;;;;5033572;28;20060;-51
2023/04/15 04:22:56;;;;;;;16.20;10.67;;;6.20;99.90;;;;;;5033487;28;20387;-52
2023/04/15 04:25:23;;;;;;;18.13;11.10;;;6.20;99.90;;;;;;5032984;28;20037;-55
2023/04/15 04:27:49;;;;;;;18.67;11.07;;;6.20;99.90;;;;;;5033051;28;20099;-53
2023/04/15 04:30:15;;;;;;;18.67;11.40;;;6.20;99.90;;;;;;5033103;28;20125;-51
2023/04/15 04:32:40;;;;;;;16.77;10.40;;;6.20;99.90;;;;;;5033051;28;20063;-53
2023/04/15 04:35:07;;;;;;;17.20;10.50;;;6.20;99.90;;;;;;5032886;28;20036;-54
2023/04/15 04:37:32;;;;;;;17.43;10.67;;;6.20;99.90;;;;;;5032892;28;20470;-52
2023/04/15 04:39:58;;;;;;;17.00;10.50;;;6.20;99.90;;;;;;5032941;28;20090;-52
2023/04/15 04:42:24;;;;;;;16.47;10.50;;;6.20;99.90;;;;;;5032972;28;20116;-53
2023/04/15 04:44:50;;;;;;;18.27;10.67;;;6.20;99.90;;;;;;5032506;28;20053;-55
2023/04/15 04:47:16;;;;;;;15.83;10.47;;;6.20;99.90;;;;;;5032560;28;20190;-53
2023/04/15 04:49:41;;;;;;;19.13;10.83;;;6.10;99.90;;;;;;5032841;28;20525;-54
2023/04/15 04:52:07;;;;;;;17.60;11.10;;;6.10;99.90;;;;;;5032249;28;20025;-54
2023/04/15 04:54:33;;;;;;;16.57;10.77;;;6.10;99.90;;;;;;5032675;28;20159;-51
2023/04/15 04:56:59;;;;;;;19.27;10.83;;;6.00;99.90;;;;;;5032407;28;20025;-52
2023/04/15 04:59:25;;;;;;;18.40;10.77;;;6.10;99.90;;;;;;5032594;28;20063;-54
2023/04/15 05:01:51;;;;;;;18.57;10.83;;;6.00;99.90;;;;;;5032499;28;20131;-53
2023/04/15 05:04:17;;;;;;;19.57;10.77;;;6.10;99.90;;;;;;5032592;28;20152;-56
2023/04/15 05:06:42;;;;;;;24.83;11.40;;;6.10;99.90;;;;;;5032274;28;20498;-51
2023/04/15 05:09:08;;;;;;;19.90;11.40;;;6.00;99.90;;;;;;5032562;28;20041;-51
2023/04/15 05:11:34;;;;;;;21.77;12.20;;;6.10;99.90;;;;;;5032606;28;20064;-52
2023/04/15 05:14:01;;;;;;;23.47;11.93;;;6.00;99.90;;;;;;5032171;28;20033;-54
2023/04/15 05:16:27;;;;;;;22.13;11.67;;;6.10;99.90;;;;;;5031901;28;20026;-53
2023/04/15 05:18:52;;;;;;;23.20;11.87;;;6.10;99.90;;;;;;5032328;28;20029;-50
2023/04/15 05:21:19;;;;;;;20.87;11.30;;;6.10;99.90;;;;;;5032298;28;20047;-54
2023/04/15 05:23:45;;;;;;;22.90;12.10;;;6.10;99.90;;;;;;5031984;28;20049;-51
2023/04/15 05:26:11;;;;;;;17.33;11.17;;;6.10;99.90;;;;;;5031908;28;20026;-54
2023/04/15 05:28:36;;;;;;;17.30;11.17;;;6.20;99.90;;;;;;5031748;28;20375;-54
2023/04/15 05:31:02;;;;;;;18.47;11.17;;;6.20;99.90;;;;;;5032023;28;20065;-53
2023/04/15 05:33:28;;;;;;;17.40;10.97;;;6.20;99.90;;;;;;5031945;28;20112;-52
2023/04/15 05:35:54;;;;;;;21.17;10.53;;;6.20;99.90;;;;;;5032324;28;20025;-54
2023/04/15 05:38:22;;;;;;;17.87;10.47;;;6.30;99.90;;;;;;5032030;28;20080;-54
2023/04/15 05:40:48;;;;;;;19.37;11.93;;;6.30;99.90;;;;;;5032055;28;20029;-55
2023/04/15 05:43:14;;;;;;;20.67;11.30;;;6.40;99.90;;;;;;5031980;28;20036;-50
2023/04/15 05:45:40;;;;;;;18.57;11.37;;;6.50;99.90;;;;;;5031585;28;20034;-54
2023/04/15 05:48:06;;;;;;;19.87;11.23;;;6.60;99.90;;;;;;5031819;28;20037;-51
2023/04/15 05:50:31;;;;;;;17.43;11.30;;;6.70;99.90;;;;;;5032215;28;20044;-54
2023/04/15 05:52:57;;;;;;;20.03;10.70;;;6.90;99.90;;;;;;5031749;28;20025;-53
2023/04/15 05:55:23;;;;;;;18.63;10.70;;;7.20;99.90;;;;;;5031416;28;20513;-52
2023/04/15 05:57:48;;;;;;;16.23;10.23;;;7.50;99.90;;;;;;5031409;28;20030;-55
2023/04/15 06:00:15;;;;;;;20.87;11.53;;;7.70;99.90;;;;;;5031388;28;20490;-51
2023/04/15 06:02:41;;;;;;;19.87;12.10;;;7.80;99.90;;;;;;5031450;28;20034;-51
2023/04/15 06:05:08;;;;;;;17.70;10.90;;;7.90;99.90;;;;;;5030680;28;20030;-55
2023/04/15 06:07:36;;;;;;;17.20;11.20;;;8.00;99.90;;;;;;5031135;28;20037;-56
2023/04/15 06:10:03;;;;;;;18.43;11.00;;;8.00;99.90;;;;;;5031215;28;20037;-54
2023/04/15 06:12:29;;;;;;;25.27;12.13;;;8.10;99.90;;;;;;5030007;28;20033;-53
2023/04/15 06:14:55;;;;;;;18.37;10.93;;;8.20;99.90;;;;;;5030865;28;20037;-53
2023/04/15 06:17:20;;;;;;;18.80;11.40;;;8.40;99.90;;;;;;5031202;28;20044;-54
2023/04/15 06:19:46;;;;;;;19.37;12.03;;;8.50;99.90;;;;;;5031011;28;20072;-54
2023/04/15 06:22:12;;;;;;;17.47;10.90;;;8.40;99.90;;;;;;5031161;28;20116;-52
2023/04/15 06:24:38;;;;;;;17.37;11.23;;;8.40;99.90;;;;;;5030877;28;20497;-54
2023/04/15 06:27:03;;;;;;;18.57;11.63;;;8.40;99.90;;;;;;5030553;28;20065;-54
2023/04/15 06:29:29;;;;;;;18.13;11.67;;;8.60;99.90;;;;;;5030787;28;20034;-50
2023/04/15 06:31:55;;;;;;;20.17;12.17;;;8.70;99.90;;;;;;5031096;28;20091;-52
2023/04/15 06:34:21;;;;;;;17.70;12.00;;;8.80;99.90;;;;;;5030772;28;20021;-54
2023/04/15 06:36:47;;;;;;;18.17;12.13;;;8.80;99.90;;;;;;5030765;28;20440;-53
2023/04/15 06:39:12;;;;;;;18.33;11.97;;;8.90;99.90;;;;;;5031180;28;20029;-53
2023/04/15 06:41:38;;;;;;;17.43;11.50;;;8.90;99.90;;;;;;5031042;28;20494;-52
2023/04/15 06:44:04;;;;;;;18.33;11.37;;;8.90;99.90;;;;;;5030824;28;20033;-56
2023/04/15 06:46:30;;;;;;;20.70;11.90;;;9.10;99.90;;;;;;5030846;28;20045;-53
2023/04/15 06:48:56;;;;;;;17.33;11.53;;;9.10;99.90;;;;;;5031144;28;20021;-55
2023/04/15 06:51:22;;;;;;;17.87;12.07;;;9.30;99.90;;;;;;5030790;28;20036;-54
2023/04/15 06:53:48;;;;;;;19.17;11.80;;;9.30;99.90;;;;;;5030371;28;20382;-53
2023/04/15 06:56:14;;;;;;;17.03;11.57;;;9.40;99.90;;;;;;5030529;28;20059;-56
2023/04/15 06:58:40;;;;;;;19.00;11.37;;;9.60;99.90;;;;;;5030275;28;20104;-55
2023/04/15 07:01:06;;;;;;;15.83;11.07;;;9.80;99.90;;;;;;5030540;28;20179;-53
2023/04/15 07:03:32;;;;;;;18.03;11.37;;;10.00;99.90;;;;;;5030153;28;20107;-54
2023/04/15 07:05:57;;;;;;;17.93;11.10;;;10.00;99.90;;;;;;5030323;28;20025;-54
2023/04/15 07:08:24;;;;;;;18.33;11.37;;;10.20;99.90;;;;;;5030203;28;20501;-54
2023/04/15 07:10:50;;;;;;;18.50;11.07;;;10.30;99.90;;;;;;5030691;28;20108;-55
2023/04/15 07:13:16;;;;;;;16.00;10.17;;;10.30;99.90;;;;;;5030110;28;20033;-53
2023/04/15 07:15:41;;;;;;;17.90;11.17;;;10.50;99.90;;;;;;5029945;28;20041;-54
2023/04/15 07:18:08;;;;;;;19.40;11.40;;;10.80;99.90;;;;;;5030261;28;20036;-53
2023/04/15 07:20:34;;;;;;;17.27;10.27;;;10.80;99.90;;;;;;5030283;28;20030;-55
2023/04/15 07:23:00;;;;;;;14.03;8.97;;;11.00;99.90;;;;;;5030245;28;20129;-55
2023/04/15 07:25:26;;;;;;;11.50;7.73;;;11.10;99.90;;;;;;5029612;28;20124;-54
2023/04/15 07:27:52;;;;;;;13.43;8.17;;;11.20;99.90;;;;;;5029892;28;20033;-55
2023/04/15 07:30:18;;;;;;;11.47;7.70;;;11.40;99.90;;;;;;5030005;28;20072;-51
2023/04/15 07:32:44;;;;;;;15.47;8.40;;;11.40;99.90;;;;;;5030140;28;20057;-53
2023/04/15 07:35:10;;;;;;;11.33;7.63;;;11.30;99.90;;;;;;5030176;28;20034;-52
2023/04/15 07:37:36;;;;;;;12.20;6.97;;;11.50;99.90;;;;;;5029970;28;20205;-53
2023/04/15 07:40:05;;;;;;;10.63;6.97;;;11.50;99.90;;;;;;5029697;28;20033;-55
2023/04/15 07:42:32;;;;;;;11.27;6.80;;;11.80;99.90;;;;;;5030054;28;20044;-54
2023/04/15 07:44:58;;;;;;;9.63;6.23;;;12.00;99.90;;;;;;5029858;28;20129;-55
2023/04/15 07:47:24;;;;;;;11.53;6.90;;;12.10;99.90;;;;;;5029701;28;20120;-53
2023/04/15 07:49:50;;;;;;;9.97;7.03;;;12.10;99.90;;;;;;5030046;28;20026;-53
2023/04/15 07:52:16;;;;;;;11.33;7.30;;;12.00;99.90;;;;;;5029910;28;20487;-55
2023/04/15 07:54:41;;;;;;;10.20;6.73;;;11.90;99.90;;;;;;5029504;28;20386;-55
2023/04/15 07:57:07;;;;;;;10.77;6.43;;;11.80;99.90;;;;;;5029639;28;20076;-55
2023/04/15 07:59:33;;;;;;;10.83;6.73;;;11.80;99.90;;;;;;5029867;28;20120;-52
2023/04/15 08:01:59;;;;;;;10.33;6.77;;;11.90;99.90;;;;;;5029772;28;20030;-54
2023/04/15 08:04:25;;;;;;;12.90;7.03;;;11.90;99.90;;;;;;5029842;28;20378;-55
2023/04/15 08:06:51;;;;;;;9.13;6.60;;;12.00;99.90;;;;;;5029644;28;20046;-55
2023/04/15 08:09:17;;;;;;;9.87;6.60;;;12.00;99.90;;;;;;5029612;28;20036;-56
2023/04/15 08:11:42;;;;;;;9.63;5.63;;;12.00;99.90;;;;;;5029677;28;20025;-53
2023/04/15 08:14:08;;;;;;;7.80;5.33;;;12.20;99.90;;;;;;5029695;28;20083;-53
2023/04/15 08:16:34;;;;;;;8.40;4.90;;;12.00;99.90;;;;;;5029383;28;20480;-55
2023/04/15 08:19:00;;;;;;;6.00;3.90;;;12.10;99.90;;;;;;5029920;28;20293;-55
2023/04/15 08:21:26;;;;;;;6.57;3.83;;;12.20;99.90;;;;;;5029687;28;20442;-53
2023/04/15 08:23:53;;;;;;;7.00;3.97;;;12.30;99.90;;;;;;5029399;28;20021;-55
2023/04/15 08:26:20;;;;;;;7.13;3.80;;;12.40;99.90;;;;;;5029585;28;20040;-56
2023/04/15 08:28:46;;;;;;;7.30;4.33;;;12.50;99.90;;;;;;5033306;28;20216;-55
2023/04/15 08:31:16;;;;;;;7.13;3.80;;;12.40;99.90;;;;;;5033278;28;20483;-54
2023/04/15 08:33:42;;;;;;;6.03;3.90;;;12.40;99.90;;;;;;5033088;28;20022;-56
2023/04/15 08:36:08;;;;;;;7.37;3.80;;;12.30;99.90;;;;;;5033079;28;20501;-55
2023/04/15 08:38:35;;;;;;;6.63;4.00;;;12.40;99.90;;;;;;5032663;28;20120;-53
2023/04/15 08:41:06;;;;;;;8.23;3.60;;;12.60;99.90;;;;;;5033007;28;20033;-56
2023/04/15 08:43:37;;;;;;;5.30;3.47;;;12.70;99.90;;;;;;5032723;28;20033;-55
2023/04/15 08:46:04;;;;;;;6.25;3.53;;;12.80;99.90;;;;;;5033046;28;20033;-54
2023/04/15 08:48:33;;;;;;;6.53;3.77;;;12.70;99.90;;;;;;5032617;28;20033;-52
2023/04/15 08:51:00;;;;;;;6.07;3.80;;;12.70;99.90;;;;;;5032754;28;20052;-54
2023/04/15 08:53:28;;;;;;;5.40;3.40;;;12.50;99.90;;;;;;5032571;28;20163;-53
2023/04/15 08:55:56;;;;;;;5.10;2.90;;;12.40;99.90;;;;;;5032606;28;20022;-52
2023/04/15 08:58:24;;;;;;;5.65;3.05;;;12.30;99.90;;;;;;5032533;28;20034;-55
2023/04/15 09:00:49;;;;;;;4.87;2.63;;;12.20;99.90;;;;;;5032677;28;20112;-54
2023/04/15 09:03:16;;;;;;;5.00;2.73;;;12.30;99.90;;;;;;5032632;28;20160;-55
2023/04/15 09:05:42;;;;;;;4.70;2.87;;;12.50;99.90;;;;;;5032254;28;20482;-55
2023/04/15 09:08:08;;;;;;;4.63;2.75;;;12.70;99.90;;;;;;5032289;28;20075;-54
2023/04/15 09:10:34;;;;;;;4.80;3.20;;;12.80;99.90;;;;;;5032336;28;20025;-53
2023/04/15 09:13:00;;;;;;;5.35;3.30;;;13.00;99.90;;;;;;5032554;28;20025;-55
2023/04/15 09:15:28;;;;;;;6.00;3.38;;;13.30;99.90;;;;;;5032547;28;20488;-56
2023/04/15 09:17:55;;;;;;;5.78;3.30;;;13.20;99.90;;;;;;5032226;28;20057;-56
2023/04/15 09:20:21;;;;;;;7.20;3.60;;;13.40;99.90;;;;;;5032183;28;20482;-56
2023/04/15 09:22:49;;;;;;;6.00;3.53;;;13.80;99.90;;;;;;5032289;28;20033;-54
2023/04/15 09:25:24;;;;;;;4.82;3.20;;;13.70;99.90;;;;;;5031746;28;20029;-55
2023/04/15 09:27:51;;;;;;;5.68;3.17;;;13.80;99.90;;;;;;5032075;28;20037;-56
2023/04/15 09:30:17;;;;;;;5.93;3.25;;;13.50;99.90;;;;;;5032089;28;20445;-54
2023/04/15 09:32:54;;;;;;;5.20;3.10;;;13.60;99.90;;;;;;5031952;28;20060;-53
2023/04/15 09:35:21;;;;;;;5.07;3.25;;;13.50;99.90;;;;;;5031675;28;20036;-51
2023/04/15 09:37:51;;;;;;;6.22;3.40;;;13.70;99.90;;;;;;5031895;28;20161;-53
2023/04/15 09:40:39;;;;;;;5.50;3.10;;;13.70;99.90;;;;;;5031834;28;20041;-52
2023/04/15 09:43:06;;;;;;;5.55;3.90;;;13.90;99.90;;;;;;5031755;28;20115;-53
2023/04/15 09:45:33;;;;;;;7.32;3.83;;;13.90;99.90;;;;;;5031846;28;20029;-53
2023/04/15 09:48:14;;;;;;;6.10;3.67;;;13.70;99.90;;;;;;5031468;28;20200;-53
2023/04/15 09:50:41;;;;;;;5.25;3.20;;;13.40;99.90;;;;;;5031680;28;20441;-55
2023/04/15 09:53:14;;;;;;;6.82;3.30;;;13.30;99.90;;;;;;5031551;28;20025;-54
2023/04/15 09:55:44;;;;;;;6.38;3.05;;;13.30;99.90;;;;;;5031714;28;20037;-55
2023/04/15 09:58:20;;;;;;;5.65;3.22;;;13.30;99.90;;;;;;5031515;28;20037;-56
2023/04/15 10:00:49;;;;;;;5.07;3.40;;;13.40;99.90;;;;;;5031825;28;20041;-55
2023/04/15 10:03:20;;;;;;;5.90;3.30;;;13.50;99.90;;;;;;5031754;28;20025;-55
2023/04/15 10:05:48;;;;;;;6.13;3.70;;;13.70;99.90;;;;;;5031444;28;20108;-55
2023/04/15 10:08:17;;;;;;;5.53;3.22;;;13.60;99.90;;;;;;5030945;28;20049;-53
2023/04/15 10:10:46;;;;;;;7.50;4.85;;;13.70;99.90;;;;;;5031500;28;20030;-55
2023/04/15 10:13:23;;;;;;;6.47;3.90;;;13.90;99.90;;;;;;5031419;28;20041;-54
2023/04/15 10:16:03;;;;;;;6.47;4.07;;;13.60;99.90;;;;;;5029850;28;20128;-55
2023/04/15 10:18:33;;;;;;;5.45;3.88;;;13.40;99.90;;;;;;5030864;28;20068;-56
2023/04/15 10:21:00;;;;;;;8.10;3.70;;;13.20;99.90;;;;;;5031433;28;20033;-55
2023/04/15 10:23:27;;;;;;;5.90;3.92;;;13.10;99.90;;;;;;5030909;28;20025;-53
2023/04/15 10:25:53;;;;;;;6.40;4.15;;;12.80;99.90;;;;;;5031009;28;20496;-54
2023/04/15 10:28:21;;;;;;;5.07;3.63;;;12.70;99.90;;;;;;5030901;28;20470;-55
2023/04/15 10:30:48;;;;;;;6.07;3.80;;;12.70;99.90;;;;;;5030959;28;20036;-55
2023/04/15 10:33:18;;;;;;;5.03;3.97;;;12.80;99.90;;;;;;5031342;28;20021;-55
2023/04/15 10:35:46;;;;;;;4.93;3.70;;;13.10;99.90;;;;;;5030757;28;20472;-54
2023/04/15 10:38:38;;;;;;;6.25;3.83;;;13.20;99.90;;;;;;5030800;28;20029;-55
2023/04/15 10:41:21;;;;;;;8.80;3.80;;;13.10;99.90;;;;;;5031066;28;20112;-53
2023/04/15 10:44:00;;;;;;;6.15;4.10;;;13.00;99.90;;;;;;5030543;28;20087;-55
2023/04/15 10:46:41;;;;;;;6.25;4.30;;;12.90;99.90;;;;;;5030456;28;20449;-55
2023/04/15 10:49:15;;;;;;;6.18;4.20;;;12.80;99.90;;;;;;5030286;28;20033;-55
2023/04/15 10:51:46;;;;;;;6.13;4.20;;;12.80;99.90;;;;;;5030677;28;20030;-54
2023/04/15 10:54:29;;;;;;;7.10;4.43;;;12.60;99.90;;;;;;5030346;28;20490;-54
2023/04/15 10:57:04;;;;;;;8.80;4.75;;;12.50;99.90;;;;;;5030304;28;20064;-53
2023/04/15 10:59:31;;;;;;;7.03;4.40;;;12.50;99.90;;;;;;5030655;28;20456;-56
2023/04/15 11:02:01;;;;;;;8.03;4.03;;;12.30;99.90;;;;;;5030716;28;20041;-55
2023/04/15 11:04:52;;;;;;;6.03;3.73;;;12.20;99.90;;;;;;5030153;28;20612;-54
2023/04/15 11:07:38;;;;;;;5.97;3.90;;;12.10;99.90;;;;;;5030071;28;20502;-54
2023/04/15 11:10:12;;;;;;;6.57;3.80;;;12.10;99.90;;;;;;5030355;28;20033;-55
2023/04/15 11:12:38;;;;;;;6.03;3.43;;;12.20;99.90;;;;;;5030337;28;20038;-55
2023/04/15 11:15:31;;;;;;;28.80;4.90;;;12.40;99.90;;;;;;5030095;28;20033;-55
2023/04/15 11:18:13;;;;;;;5.40;3.70;;;12.50;99.90;;;;;;5030225;28;20390;-55
2023/04/15 11:20:41;;;;;;;6.53;4.07;;;12.40;99.90;;;;;;5030257;28;20037;-54
2023/04/15 11:23:08;;;;;;;7.17;3.87;;;12.30;99.90;;;;;;5030262;28;20036;-55
2023/04/15 11:25:36;;;;;;;5.73;3.37;;;12.20;99.90;;;;;;5029955;28;20068;-55
2023/04/15 11:28:03;;;;;;;5.40;3.30;;;12.30;99.90;;;;;;5030295;28;20033;-55
2023/04/15 11:30:31;;;;;;;5.17;3.47;;;12.20;99.90;;;;;;5030241;28;20035;-55
2023/04/15 11:33:02;;;;;;;7.57;3.60;;;12.20;99.90;;;;;;5030178;28;20052;-54
2023/04/15 11:35:29;;;;;;;5.20;3.20;;;12.30;99.90;;;;;;5029987;28;20431;-54
2023/04/15 11:37:55;;;;;;;5.70;3.80;;;12.40;99.90;;;;;;5029888;28;20037;-55
2023/04/15 11:40:28;;;;;;;6.50;3.77;;;12.60;99.90;;;;;;5030280;28;20387;-54
2023/04/15 11:43:19;;;;;;;6.03;3.77;;;12.60;99.90;;;;;;5030308;28;20053;-55
2023/04/15 11:45:59;;;;;;;6.30;3.70;;;12.40;99.90;;;;;;5030052;28;20041;-53
2023/04/15 11:48:27;;;;;;;4.77;3.30;;;12.40;99.90;;;;;;5029954;28;20147;-55
2023/04/15 11:50:54;;;;;;;4.50;2.80;;;12.50;99.90;;;;;;5029983;28;20037;-55
2023/04/15 11:53:20;;;;;;;5.63;3.60;;;12.50;99.90;;;;;;5029807;28;20080;-54
2023/04/15 11:55:48;;;;;;;4.73;3.40;;;12.50;99.90;;;;;;5030339;28;20037;-54
2023/04/15 11:58:18;;;;;;;5.27;3.67;;;12.50;99.90;;;;;;5029864;28;20033;-56
2023/04/15 12:00:57;;;;;;;7.13;3.60;;;12.40;99.90;;;;;;5029889;28;20025;-55
2023/04/15 12:03:28;;;;;;;7.33;3.90;;;12.30;99.90;;;;;;5033504;28;20033;-55
2023/04/15 12:06:40;;;;;;;4.63;3.00;;;12.40;99.90;;;;;;5033883;28;20041;-52
2023/04/15 12:09:05;;;;;;;4.23;2.90;;;12.50;99.90;;;;;;5030850;28;20045;-52
2023/04/15 12:11:32;;;;;;;4.73;3.00;;;12.80;99.90;;;;;;5033664;28;20037;-55
2023/04/15 12:14:12;;;;;;;5.67;3.20;;;12.90;99.90;;;;;;5033339;28;20052;-52
2023/04/15 12:16:41;;;;;;;;;;;12.70;99.90;;;;;;5033806;28;20038;-58
2023/04/15 12:19:12;;;;;;;6.20;3.20;;;12.60;99.90;;;;;;5033402;28;19912;-55
2023/04/15 12:21:42;;;;;;;5.33;3.53;;;12.60;99.90;;;;;;5033504;28;20112;-52
2023/04/15 12:24:10;;;;;;;4.80;3.37;;;12.30;99.90;;;;;;5032109;28;20029;-52
2023/04/15 12:26:42;;;;;;;4.87;3.03;;;12.10;99.90;;;;;;5032932;28;20091;-53
2023/04/15 12:29:09;;;;;;;6.33;3.50;;;11.90;99.90;;;;;;5033408;28;20033;-56
2023/04/15 12:31:36;;;;;;;4.67;3.10;;;11.80;99.90;;;;;;5033272;28;20414;-53
2023/04/15 12:34:03;;;;;;;5.10;2.90;;;11.90;99.90;;;;;;5032790;28;20423;-52
2023/04/15 12:36:35;;;;;;;3.93;2.80;;;12.00;99.90;;;;;;5032854;28;20079;-51
2023/04/15 12:39:05;;;;;;;6.03;2.73;;;12.00;99.90;;;;;;5033078;28;20034;-53
2023/04/15 12:41:33;;;;;;;6.37;3.00;;;12.00;99.90;;;;;;5033485;28;20063;-53
2023/04/15 12:43:59;;;;;;;6.33;3.20;;;12.20;99.90;;;;;;5032782;28;20025;-52
2023/04/15 12:46:25;;;;;;;4.87;3.33;;;11.90;99.90;;;;;;5032611;28;20026;-54
2023/04/15 12:48:52;;;;;;;5.83;3.37;;;11.80;99.90;;;;;;5032895;28;20120;-49